Time;durP1;ratioP1;P1;durP2;ratioP2;P2;SDS_P1;SDS_P2;PMS_P1;PMS_P2;Temp;Humidity;BMP_temperature;BMP_pressure;BME280_temperature;BME280_humidity;BME280_pressure;Samples;Min_cycle;Max_cycle;Signal;HPM_P1;HPM_P2
2022/05/29 00:00:53;;;;;;;;;;;;;;;;;;5095133;28;19927;-89
2022/05/29 00:03:19;;;;;;;;;;;;;;;;;;5095352;28;20430;-91
2022/05/29 00:05:45;;;;;;;;;;;;;;;;;;5095153;28;20395;-88
2022/05/29 00:08:17;;;;;;;;;;;;;;;;;;5110985;28;19938;-89
2022/05/29 00:10:43;;;;;;;;;;;;;;;;;;5095104;28;20013;-89
2022/05/29 00:13:11;;;;;;;;;;;;;;;;;;5095162;28;19932;-89
2022/05/29 00:15:37;;;;;;;;;;;;;;;;;;5095061;28;19912;-91
2022/05/29 00:18:02;;;;;;;;;;;;;;;;;;5094981;28;20049;-89
2022/05/29 00:20:28;;;;;;;;;;;;;;;;;;5094902;28;19938;-89
2022/05/29 00:22:53;;;;;;;;;;;;;;;;;;5094979;28;19916;-90
2022/05/29 00:25:19;;;;;;;;;;;;;;;;;;5110572;28;19996;-88
2022/05/29 00:27:45;;;;;;;;;;;;;;;;;;5094803;28;19920;-88
2022/05/29 00:30:11;;;;;;;;;;;;;;;;;;5094721;28;19916;-89
2022/05/29 00:32:37;;;;;;;;;;;;;;;;;;5076530;28;19970;-89
2022/05/29 00:35:02;;;;;;;;;;;;;;;;;;5076565;28;20371;-89
2022/05/29 00:37:30;;;;;;;;;;;;;;;;;;5094715;28;20002;-90
2022/05/29 00:39:55;;;;;;;;;;;;;;;;;;5094631;28;19974;-89
2022/05/29 00:42:23;;;;;;;;;;;;;;;;;;5094450;28;19920;-89
2022/05/29 00:44:49;;;;;;;;;;;;;;;;;;5076327;28;19920;-89
2022/05/29 00:47:16;;;;;;;;;;;;;;;;;;5094486;28;19916;-89
2022/05/29 00:49:42;;;;;;;;;;;;;;;;;;5094293;28;19920;-90
2022/05/29 00:52:08;;;;;;;;;;;;;;;;;;5094367;28;19916;-88
2022/05/29 00:54:37;;;;;;;;;;;;;;;;;;5094046;28;19928;-90
2022/05/29 00:57:03;;;;;;;;;;;;;;;;;;5094253;28;19966;-90
2022/05/29 00:59:29;;;;;;;;;;;;;;;;;;5094186;28;19919;-90
2022/05/29 01:01:55;;;;;;;;;;;;;;;;;;5094151;28;19916;-89
2022/05/29 01:04:21;;;;;;;;;;;;;;;;;;5094099;28;20264;-91
2022/05/29 01:06:46;;;;;;;;;;;;;;;;;;5094094;28;19973;-89
2022/05/29 01:09:12;;;;;;;;;;;;;;;;;;5093479;28;20709;-89
2022/05/29 01:11:41;;;;;;;;;;;;;;;;;;5075735;28;20019;-89
2022/05/29 01:14:07;;;;;;;;;;;;;;;;;;5093946;28;20350;-89
2022/05/29 01:16:40;;;;;;;;;;;;;;;;;;5093834;28;19950;-88
2022/05/29 01:19:06;;;;;;;;;;;;;;;;;;5075661;28;19965;-89
2022/05/29 01:21:37;;;;;;;;;;;;;;;;;;5075594;28;19920;-90
2022/05/29 01:24:38;;;;;;;;;;;;;;;;;;5075569;28;19917;-90
2022/05/29 01:27:28;;;;;;;;;;;;;;;;;;5031293;28;19924;-88
2022/05/29 01:29:53;;;;;;;;;;;;;;;;;;5090757;28;19952;-89
2022/05/29 01:32:23;;;;;;;;;;;;;;;;;;5075384;28;19969;-89
2022/05/29 01:34:53;;;;;;;;;;;;;;;;;;5075368;28;19916;-89
2022/05/29 01:37:36;;;;;;;;;;;;;;;;;;5109214;28;19916;-89
2022/05/29 01:40:05;;;;;;;;;;;;;;;;;;5093569;28;19919;-91
2022/05/29 01:42:42;;;;;;;;;;;;;;;;;;5093393;28;19916;-89
2022/05/29 01:45:07;;;;;;;;;;;;;;;;;;5093473;28;20287;-89
2022/05/29 01:47:38;;;;;;;;;;;;;;;;;;5075216;28;19923;-89
2022/05/29 01:50:11;;;;;;;;;;;;;;;;;;5075114;28;19920;-90
2022/05/29 01:52:52;;;;;;;;;;;;;;;;;;5075134;28;19916;-88
2022/05/29 01:55:23;;;;;;;;;;;;;;;;;;5093125;28;19920;-89
2022/05/29 01:57:50;;;;;;;;;;;;;;;;;;5075033;28;19927;-90
2022/05/29 02:00:18;;;;;;;;;;;;;;;;;;5093117;28;19923;-89
2022/05/29 02:02:52;;;;;;;;;;;;;;;;;;5092902;28;19920;-89
2022/05/29 02:05:21;;;;;;;;;;;;;;;;;;5093174;28;20329;-89
2022/05/29 02:07:48;;;;;;;;;;;;;;;;;;5074964;28;19927;-89
2022/05/29 02:10:27;;;;;;;;;;;;;;;;;;5093320;28;20007;-90
2022/05/29 02:13:12;;;;;;;;;;;;;;;;;;5093097;28;20027;-90
2022/05/29 02:15:40;;;;;;;;;;;;;;;;;;5067579;28;20292;-90
2022/05/29 02:18:08;;;;;;;;;;;;;;;;;;5092994;28;19923;-89
2022/05/29 02:20:36;;;;;;;;;;;;;;;;;;5093208;28;20347;-89
2022/05/29 02:23:08;;;;;;;;;;;;;;;;;;5097223;28;20359;-92
2022/05/29 02:25:35;;;;;;;;;;;;;;;;;;5079002;28;20015;-90
2022/05/29 02:28:04;;;;;;;;;;;;;;;;;;5097141;28;19916;-88
2022/05/29 02:30:45;;;;;;;;;;;;;;;;;;5096959;28;19920;-89
2022/05/29 02:33:13;;;;;;;;;;;;;;;;;;5078930;28;19916;-88
2022/05/29 02:35:51;;;;;;;;;;;;;;;;;;5096951;28;19920;-93
2022/05/29 02:38:23;;;;;;;;;;;;;;;;;;5096882;28;20353;-89
2022/05/29 02:40:52;;;;;;;;;;;;;;;;;;5078723;28;19928;-89
2022/05/29 02:43:22;;;;;;;;;;;;;;;;;;5096854;28;19920;-90
2022/05/29 02:45:57;;;;;;;;;;;;;;;;;;5078512;28;19966;-88
2022/05/29 02:48:40;;;;;;;;;;;;;;;;;;5096640;28;19920;-89
2022/05/29 02:51:05;;;;;;;;;;;;;;;;;;5096704;28;19944;-88
2022/05/29 02:53:32;;;;;;;;;;;;;;;;;;5097063;28;19958;-90
2022/05/29 02:55:57;;;;;;;;;;;;;;;;;;5078232;28;20306;-89
2022/05/29 02:58:25;;;;;;;;;;;;;;;;;;5112234;28;19924;-89
2022/05/29 03:00:50;;;;;;;;;;;;;;;;;;5078340;28;19966;-88
2022/05/29 03:03:25;;;;;;;;;;;;;;;;;;5096507;28;19916;-89
2022/05/29 03:06:13;;;;;;;;;;;;;;;;;;5078152;28;19974;-90
2022/05/29 03:08:38;;;;;;;;;;;;;;;;;;5096365;28;19923;-90
2022/05/29 03:11:22;;;;;;;;;;;;;;;;;;5096307;28;19916;-90
2022/05/29 03:14:01;;;;;;;;;;;;;;;;;;5077973;28;19916;-90
2022/05/29 03:16:49;;;;;;;;;;;;;;;;;;5096228;28;19920;-90
2022/05/29 03:19:37;;;;;;;;;;;;;;;;;;5067147;28;19920;-90
2022/05/29 03:22:06;;;;;;;;;;;;;;;;;;5096713;28;19916;-89
2022/05/29 03:24:32;;;;;;;;;;;;;;;;;;5077869;28;20431;-89
2022/05/29 03:27:03;;;;;;;;;;;;;;;;;;5096036;28;20015;-89
2022/05/29 03:29:43;;;;;;;;;;;;;;;;;;5077771;28;20364;-89
2022/05/29 03:32:09;;;;;;;;;;;;;;;;;;5095505;28;20360;-89
2022/05/29 03:34:34;;;;;;;;;;;;;;;;;;5077620;28;19975;-89
2022/05/29 03:37:00;;;;;;;;;;;;;;;;;;5095882;28;20022;-89
2022/05/29 03:39:25;;;;;;;;;;;;;;;;;;5095791;28;20342;-91
2022/05/29 03:41:52;;;;;;;;;;;;;;;;;;5095760;28;20339;-89
2022/05/29 03:44:19;;;;;;;;;;;;;;;;;;5095665;28;19916;-91
2022/05/29 03:46:44;;;;;;;;;;;;;;;;;;5077504;28;20371;-88
2022/05/29 03:49:10;;;;;;;;;;;;;;;;;;5077328;28;19969;-89
2022/05/29 03:51:36;;;;;;;;;;;;;;;;;;5095507;28;20363;-90
2022/05/29 03:54:03;;;;;;;;;;;;;;;;;;5077181;28;19955;-89
2022/05/29 03:56:28;;;;;;;;;;;;;;;;;;5095451;28;20003;-90
2022/05/29 03:58:54;;;;;;;;;;;;;;;;;;5095564;28;20011;-91
2022/05/29 04:01:19;;;;;;;;;;;;;;;;;;5095427;28;19932;-89
2022/05/29 04:03:45;;;;;;;;;;;;;;;;;;5095248;28;20383;-90
2022/05/29 04:06:10;;;;;;;;;;;;;;;;;;5077213;28;19916;-90
2022/05/29 04:14:04;;;;;;;;;;;;;;;;;;5095233;28;19977;-90
2022/05/29 04:16:29;;;;;;;;;;;;;;;;;;5095052;28;19920;-89
2022/05/29 04:18:55;;;;;;;;;;;;;;;;;;5076856;28;20374;-90
2022/05/29 04:21:20;;;;;;;;;;;;;;;;;;5095054;28;20387;-89
2022/05/29 04:23:46;;;;;;;;;;;;;;;;;;5094927;28;20421;-88
2022/05/29 04:26:12;;;;;;;;;;;;;;;;;;5094913;28;19942;-89
2022/05/29 04:28:37;;;;;;;;;;;;;;;;;;5094873;28;19916;-88
2022/05/29 04:31:03;;;;;;;;;;;;;;;;;;5094736;28;19923;-88
2022/05/29 04:33:28;;;;;;;;;;;;;;;;;;5094760;28;19916;-89
2022/05/29 04:35:54;;;;;;;;;;;;;;;;;;5076499;28;19974;-90
2022/05/29 04:38:20;;;;;;;;;;;;;;;;;;5094640;28;19955;-90
2022/05/29 04:40:46;;;;;;;;;;;;;;;;;;5076459;28;20459;-88
2022/05/29 04:43:12;;;;;;;;;;;;;;;;;;5093988;28;20038;-89
2022/05/29 04:45:39;;;;;;;;;;;;;;;;;;5109880;28;19943;-90
2022/05/29 04:48:05;;;;;;;;;;;;;;;;;;5094544;28;19912;-89
2022/05/29 04:50:30;;;;;;;;;;;;;;;;;;5094617;28;19920;-88
2022/05/29 04:52:56;;;;;;;;;;;;;;;;;;5094423;28;20284;-89
2022/05/29 04:55:21;;;;;;;;;;;;;;;;;;5094158;28;19927;-89
2022/05/29 04:57:47;;;;;;;;;;;;;;;;;;5094254;28;19916;-89
2022/05/29 05:00:13;;;;;;;;;;;;;;;;;;5094293;28;19912;-90
2022/05/29 05:02:39;;;;;;;;;;;;;;;;;;5094210;28;20372;-89
2022/05/29 05:05:04;;;;;;;;;;;;;;;;;;5094174;28;19923;-90
2022/05/29 05:07:30;;;;;;;;;;;;;;;;;;5093734;28;19916;-89
2022/05/29 05:09:55;;;;;;;;;;;;;;;;;;5093903;28;19939;-88
2022/05/29 05:12:21;;;;;;;;;;;;;;;;;;5094085;28;20360;-88
2022/05/29 05:14:46;;;;;;;;;;;;;;;;;;5093964;28;19916;-88
2022/05/29 05:17:12;;;;;;;;;;;;;;;;;;5093973;28;19922;-90
2022/05/29 05:19:37;;;;;;;;;;;;;;;;;;5093862;28;19916;-89
2022/05/29 05:22:04;;;;;;;;;;;;;;;;;;5094012;28;19977;-88
2022/05/29 05:24:29;;;;;;;;;;;;;;;;;;5093852;28;19916;-89
2022/05/29 05:26:56;;;;;;;;;;;;;;;;;;5093740;28;19926;-89
2022/05/29 05:29:22;;;;;;;;;;;;;;;;;;5093666;28;19916;-88
2022/05/29 05:31:48;;;;;;;;;;;;;;;;;;5093556;28;20006;-89
2022/05/29 05:34:13;;;;;;;;;;;;;;;;;;5093633;28;19955;-89
2022/05/29 05:36:39;;;;;;;;;;;;;;;;;;5093619;28;20011;-90
2022/05/29 05:39:04;;;;;;;;;;;;;;;;;;5093549;28;19923;-89
2022/05/29 05:41:29;;;;;;;;;;;;;;;;;;5093403;28;19973;-87
2022/05/29 05:43:57;;;;;;;;;;;;;;;;;;5092710;28;20125;-89
2022/05/29 05:46:22;;;;;;;;;;;;;;;;;;5093467;28;20006;-89
2022/05/29 05:48:48;;;;;;;;;;;;;;;;;;5093473;28;19916;-90
2022/05/29 05:51:13;;;;;;;;;;;;;;;;;;5109049;28;19916;-89
2022/05/29 05:53:40;;;;;;;;;;;;;;;;;;5074985;28;20288;-89
2022/05/29 05:56:06;;;;;;;;;;;;;;;;;;5093032;28;19924;-89
2022/05/29 05:58:31;;;;;;;;;;;;;;;;;;5093249;28;20424;-90
2022/05/29 06:00:57;;;;;;;;;;;;;;;;;;5093234;28;19924;-91
2022/05/29 06:03:22;;;;;;;;;;;;;;;;;;5092945;28;19974;-89
2022/05/29 06:05:48;;;;;;;;;;;;;;;;;;5108762;28;20287;-89
2022/05/29 06:08:13;;;;;;;;;;;;;;;;;;5093181;28;19916;-88
2022/05/29 06:10:39;;;;;;;;;;;;;;;;;;5092918;28;19916;-89
2022/05/29 06:13:05;;;;;;;;;;;;;;;;;;5093106;28;19978;-92
2022/05/29 06:15:31;;;;;;;;;;;;;;;;;;5092773;28;19916;-89
2022/05/29 06:17:56;;;;;;;;;;;;;;;;;;5092999;28;19923;-89
2022/05/29 06:20:22;;;;;;;;;;;;;;;;;;5092789;28;20363;-88
2022/05/29 06:22:47;;;;;;;;;;;;;;;;;;5092945;28;19912;-89
2022/05/29 06:25:12;;;;;;;;;;;;;;;;;;5092863;28;19927;-90
2022/05/29 06:27:39;;;;;;;;;;;;;;;;;;5075403;28;19920;-90
2022/05/29 06:30:07;;;;;;;;;;;;;;;;;;5092617;28;19920;-91
2022/05/29 06:32:32;;;;;;;;;;;;;;;;;;5092086;28;19916;-88
2022/05/29 06:34:58;;;;;;;;;;;;;;;;;;5092934;28;19919;-90
2022/05/29 06:37:23;;;;;;;;;;;;;;;;;;5092919;28;19960;-90
2022/05/29 06:39:49;;;;;;;;;;;;;;;;;;5092751;28;19919;-91
2022/05/29 06:42:15;;;;;;;;;;;;;;;;;;5092773;28;19916;-88
2022/05/29 06:44:41;;;;;;;;;;;;;;;;;;5092807;28;19931;-89
2022/05/29 06:47:10;;;;;;;;;;;;;;;;;;5092794;28;20276;-87
2022/05/29 06:49:36;;;;;;;;;;;;;;;;;;5074375;28;19989;-90
2022/05/29 06:52:06;;;;;;;;;;;;;;;;;;5092720;28;19922;-88
2022/05/29 06:54:31;;;;;;;;;;;;;;;;;;5092533;28;19930;-88
2022/05/29 06:56:57;;;;;;;;;;;;;;;;;;5092708;28;20389;-89
2022/05/29 06:59:22;;;;;;;;;;;;;;;;;;5092606;28;19919;-89
2022/05/29 07:07:16;;;;;;;;;;;;;;;;;;5094017;28;19923;-92
2022/05/29 07:09:41;;;;;;;;;;;;;;;;;;5096160;28;19920;-89
2022/05/29 07:12:09;;;;;;;;;;;;;;;;;;5096424;28;20364;-89
2022/05/29 07:14:36;;;;;;;;;;;;;;;;;;5096295;28;20314;-87
2022/05/29 07:17:01;;;;;;;;;;;;;;;;;;5096133;28;19916;-90
2022/05/29 07:19:28;;;;;;;;;;;;;;;;;;5077917;28;19938;-89
2022/05/29 07:21:57;;;;;;;;;;;;;;;;;;5096065;28;19942;-91
2022/05/29 07:24:23;;;;;;;;;;;;;;;;;;5091097;28;20365;-89
2022/05/29 07:26:49;;;;;;;;;;;;;;;;;;5096038;28;19912;-89
2022/05/29 07:29:17;;;;;;;;;;;;;;;;;;5095949;28;19916;-89
2022/05/29 07:31:43;;;;;;;;;;;;;;;;;;5077596;28;19962;-87
2022/05/29 07:34:08;;;;;;;;;;;;;;;;;;5095941;28;19961;-88
2022/05/29 07:36:33;;;;;;;;;;;;;;;;;;5095849;28;20391;-89
2022/05/29 07:39:00;;;;;;;;;;;;;;;;;;5095264;28;19924;-88
2022/05/29 07:44:09;;;;;;;;;;;;;;;;;;5095482;28;20692;-89
2022/05/29 07:46:35;;;;;;;;;;;;;;;;;;5095773;28;19923;-89
2022/05/29 07:49:00;;;;;;;;;;;;;;;;;;5095372;28;19916;-90
2022/05/29 07:51:26;;;;;;;;;;;;;;;;;;5095355;28;19916;-89
2022/05/29 07:53:51;;;;;;;;;;;;;;;;;;5095072;28;20392;-88
2022/05/29 07:56:19;;;;;;;;;;;;;;;;;;5111387;28;19958;-88
2022/05/29 07:58:44;;;;;;;;;;;;;;;;;;5115821;28;20313;-89
2022/05/29 08:01:11;;;;;;;;;;;;;;;;;;5115750;28;19932;-88
2022/05/29 08:03:36;;;;;;;;;;;;;;;;;;5115581;28;19920;-90
2022/05/29 08:06:02;;;;;;;;;;;;;;;;;;5097439;28;20014;-88
2022/05/29 08:08:29;;;;;;;;;;;;;;;;;;5115671;28;19923;-89
2022/05/29 08:10:55;;;;;;;;;;;;;;;;;;5115448;28;20256;-89
2022/05/29 08:13:20;;;;;;;;;;;;;;;;;;5115234;28;19934;-89
2022/05/29 08:15:46;;;;;;;;;;;;;;;;;;5115364;28;19920;-92
2022/05/29 08:18:12;;;;;;;;;;;;;;;;;;5114512;28;20300;-89
2022/05/29 08:20:38;;;;;;;;;;;;;;;;;;5115142;28;19926;-90
2022/05/29 08:23:06;;;;;;;;;;;;;;;;;;5115389;28;19915;-90
2022/05/29 08:31:00;;;;;;;;;;;;;;;;;;5115178;28;19974;-89
2022/05/29 08:33:26;;;;;;;;;;;;;;;;;;5114757;28;20370;-90
2022/05/29 08:36:06;;;;;;;;;;;;;;;;;;5115091;28;20399;-89
2022/05/29 08:38:32;;;;;;;;;;;;;;;;;;5115078;28;19915;-87
2022/05/29 08:41:02;;;;;;;;;;;;;;;;;;5096417;28;20355;-90
2022/05/29 08:43:27;;;;;;;;;;;;;;;;;;5076284;28;19923;-89
2022/05/29 08:45:53;;;;;;;;;;;;;;;;;;5094463;28;20351;-90
2022/05/29 08:48:20;;;;;;;;;;;;;;;;;;5074998;28;19926;-89
2022/05/29 08:50:50;;;;;;;;;;;;;;;;;;5094251;28;19920;-89
2022/05/29 08:53:28;;;;;;;;;;;;;;;;;;5075856;28;20360;-89
2022/05/29 08:55:59;;;;;;;;;;;;;;;;;;5094135;28;19924;-88
2022/05/29 08:58:27;;;;;;;;;;;;;;;;;;5094311;28;19962;-88
2022/05/29 09:01:04;;;;;;;;;;;;;;;;;;5094250;28;19916;-89
2022/05/29 09:03:42;;;;;;;;;;;;;;;;;;5094126;28;19924;-88
2022/05/29 09:06:16;;;;;;;;;;;;;;;;;;5076004;28;19916;-88
2022/05/29 09:08:51;;;;;;;;;;;;;;;;;;5094047;28;19916;-88
2022/05/29 09:11:19;;;;;;;;;;;;;;;;;;5093831;28;20291;-90
2022/05/29 09:13:55;;;;;;;;;;;;;;;;;;5093495;28;20011;-88
2022/05/29 09:16:22;;;;;;;;;;;;;;;;;;5094034;28;19924;-89
2022/05/29 09:19:02;;;;;;;;;;;;;;;;;;5093930;28;19964;-89
2022/05/29 09:21:36;;;;;;;;;;;;;;;;;;5075599;28;20360;-89
2022/05/29 09:24:05;;;;;;;;;;;;;;;;;;5093840;28;19920;-90
2022/05/29 09:26:35;;;;;;;;;;;;;;;;;;5093790;28;19920;-89
2022/05/29 09:29:00;;;;;;;;;;;;;;;;;;5093693;28;19920;-88
2022/05/29 09:31:26;;;;;;;;;;;;;;;;;;5093117;28;19916;-89
2022/05/29 09:33:52;;;;;;;;;;;;;;;;;;5093292;28;20641;-89
2022/05/29 09:36:30;;;;;;;;;;;;;;;;;;5093606;28;19973;-88
2022/05/29 09:38:59;;;;;;;;;;;;;;;;;;5093642;28;20350;-89
2022/05/29 09:41:26;;;;;;;;;;;;;;;;;;5093553;28;19961;-91
2022/05/29 09:44:15;;;;;;;;;;;;;;;;;;5093423;28;19924;-89
2022/05/29 09:46:44;;;;;;;;;;;;;;;;;;5078050;28;19927;-88
2022/05/29 09:52:09;;;;;;;;;;;;;;;;;;5093344;28;19923;-89
2022/05/29 09:54:43;;;;;;;;;;;;;;;;;;5092725;28;20361;-90
2022/05/29 09:57:28;;;;;;;;;;;;;;;;;;5093324;28;20367;-89
2022/05/29 09:59:59;;;;;;;;;;;;;;;;;;5093225;28;19926;-87
2022/05/29 10:02:31;;;;;;;;;;;;;;;;;;5093273;28;19963;-88
2022/05/29 10:05:00;;;;;;;;;;;;;;;;;;5092923;28;19923;-88
2022/05/29 10:07:36;;;;;;;;;;;;;;;;;;5092790;28;19916;-89
2022/05/29 10:10:01;;;;;;;;;;;;;;;;;;5093001;28;20330;-90
2022/05/29 10:12:38;;;;;;;;;;;;;;;;;;5093011;28;19916;-88
2022/05/29 10:15:05;;;;;;;;;;;;;;;;;;5074558;28;19916;-92
2022/05/29 10:17:30;;;;;;;;;;;;;;;;;;5096136;28;19964;-86
2022/05/29 10:19:56;;;;;;;;;;;;;;;;;;5076449;28;19916;-86
2022/05/29 10:22:26;;;;;;;;;;;;;;;;;;5096616;28;19969;-86
2022/05/29 10:24:52;;;;;;;;;;;;;;;;;;5095839;28;19916;-87
2022/05/29 10:27:20;;;;;;;;;;;;;;;;;;5092961;28;19923;-86
2022/05/29 10:29:51;;;;;;;;;;;;;;;;;;5074576;28;19978;-85
2022/05/29 10:32:22;;;;;;;;;;;;;;;;;;5092896;28;19920;-87
2022/05/29 10:34:48;;;;;;;;;;;;;;;;;;5092642;28;19916;-87
2022/05/29 10:37:32;;;;;;;;;;;;;;;;;;5092839;28;20256;-88
2022/05/29 10:40:31;;;;;;;;;;;;;;;;;;5092807;28;20364;-87
2022/05/29 10:43:04;;;;;;;;;;;;;;;;;;5061814;28;19923;-87
2022/05/29 10:45:33;;;;;;;;;;;;;;;;;;5096858;28;20384;-87
2022/05/29 10:48:11;;;;;;;;;;;;;;;;;;5096785;28;20291;-87
2022/05/29 10:50:36;;;;;;;;;;;;;;;;;;5096748;28;19966;-88
2022/05/29 10:53:11;;;;;;;;;;;;;;;;;;5078480;28;19951;-87
2022/05/29 10:55:40;;;;;;;;;;;;;;;;;;5102294;28;20388;-88
2022/05/29 10:58:25;;;;;;;;;;;;;;;;;;5079844;28;20363;-87
2022/05/29 11:01:01;;;;;;;;;;;;;;;;;;5096683;28;19920;-88
2022/05/29 11:03:34;;;;;;;;;;;;;;;;;;5096534;28;20307;-87
2022/05/29 11:06:19;;;;;;;;;;;;;;;;;;5096501;28;19916;-86
2022/05/29 11:08:47;;;;;;;;;;;;;;;;;;5096440;28;19948;-90
2022/05/29 11:11:20;;;;;;;;;;;;;;;;;;5082068;28;19920;-87
2022/05/29 11:14:05;;;;;;;;;;;;;;;;;;5075538;28;19924;-87
2022/05/29 11:16:49;;;;;;;;;;;;;;;;;;5075433;28;19972;-87
2022/05/29 11:19:34;;;;;;;;;;;;;;;;;;5075949;28;20372;-87
2022/05/29 11:22:18;;;;;;;;;;;;;;;;;;5075986;28;20441;-89
2022/05/29 11:24:49;;;;;;;;;;;;;;;;;;5075828;28;19916;-87
2022/05/29 11:27:28;;;;;;;;;;;;;;;;;;5075895;28;19963;-87
2022/05/29 11:30:02;;;;;;;;;;;;;;;;;;5075656;28;19917;-86
2022/05/29 11:32:46;;;;;;;;;;;;;;;;;;5075692;28;19917;-88
2022/05/29 11:35:15;;;;;;;;;;;;;;;;;;5075367;28;20334;-88
2022/05/29 11:37:59;;;;;;;;;;;;;;;;;;5075497;28;19931;-87
2022/05/29 11:40:36;;;;;;;;;;;;;;;;;;5075606;28;19913;-88
2022/05/29 11:43:02;;;;;;;;;;;;;;;;;;5075578;28;19920;-87
2022/05/29 11:51:30;;;;;;;;;;;;;;;;;;5075376;28;19923;-89
2022/05/29 11:54:07;;;;;;;;;;;;;;;;;;5073192;28;19916;-87
2022/05/29 11:56:37;;;;;;;;;;;;;;;;;;5071818;28;19971;-86
2022/05/29 11:59:21;;;;;;;;;;;;;;;;;;5075260;28;19920;-87
2022/05/29 12:01:54;;;;;;;;;;;;;;;;;;5075063;28;19938;-89
2022/05/29 12:04:22;;;;;;;;;;;;;;;;;;5073946;28;20304;-87
2022/05/29 12:06:54;;;;;;;;;;;;;;;;;;5075090;28;20019;-87
2022/05/29 12:09:34;;;;;;;;;;;;;;;;;;5075046;28;20018;-88
2022/05/29 12:12:14;;;;;;;;;;;;;;;;;;5074927;28;19916;-87
2022/05/29 12:14:45;;;;;;;;;;;;;;;;;;5074593;28;19923;-87
2022/05/29 12:17:14;;;;;;;;;;;;;;;;;;5090776;28;20030;-86
2022/05/29 12:19:45;;;;;;;;;;;;;;;;;;5074724;28;19916;-87
2022/05/29 12:22:12;;;;;;;;;;;;;;;;;;5074807;28;19921;-87
2022/05/29 12:24:41;;;;;;;;;;;;;;;;;;5074822;28;19916;-87
2022/05/29 12:27:12;;;;;;;;;;;;;;;;;;5074762;28;19939;-87
2022/05/29 12:29:47;;;;;;;;;;;;;;;;;;5074441;28;20283;-89
2022/05/29 12:32:23;;;;;;;;;;;;;;;;;;5090232;28;20322;-87
2022/05/29 12:34:51;;;;;;;;;;;;;;;;;;5073968;28;19958;-87
2022/05/29 12:37:52;;;;;;;;;;;;;;;;;;5074102;28;20427;-86
2022/05/29 12:40:27;;;;;;;;;;;;;;;;;;5012611;28;20384;-85
2022/05/29 12:42:58;;;;;;;;;;;;;;;;;;5050304;28;19917;-87
2022/05/29 12:45:36;;;;;;;;;;;;;;;;;;5074392;28;19922;-86
2022/05/29 12:48:01;;;;;;;;;;;;;;;;;;5074311;28;19939;-87
2022/05/29 12:50:47;;;;;;;;;;;;;;;;;;5074203;28;20376;-86
2022/05/29 12:53:12;;;;;;;;;;;;;;;;;;5073239;28;19916;-87
2022/05/29 12:55:53;;;;;;;;;;;;;;;;;;5073216;28;20383;-89
2022/05/29 12:58:18;;;;;;;;;;;;;;;;;;5073882;28;20369;-89
2022/05/29 13:00:58;;;;;;;;;;;;;;;;;;5074054;28;20050;-89
2022/05/29 13:03:40;;;;;;;;;;;;;;;;;;5073736;28;19925;-88
2022/05/29 13:06:21;;;;;;;;;;;;;;;;;;5073325;28;19920;-88
2022/05/29 13:09:02;;;;;;;;;;;;;;;;;;5073968;28;19924;-89
2022/05/29 13:11:33;;;;;;;;;;;;;;;;;;5073736;28;19923;-91
2022/05/29 13:14:01;;;;;;;;;;;;;;;;;;5073454;28;20399;-90
2022/05/29 13:16:35;;;;;;;;;;;;;;;;;;5072573;28;20439;-89
2022/05/29 13:19:14;;;;;;;;;;;;;;;;;;5073732;28;19924;-89
2022/05/29 13:21:59;;;;;;;;;;;;;;;;;;5073442;28;19916;-92
2022/05/29 13:24:30;;;;;;;;;;;;;;;;;;5073360;28;19916;-90
2022/05/29 13:27:12;;;;;;;;;;;;;;;;;;5073624;28;19916;-89
2022/05/29 13:29:45;;;;;;;;;;;;;;;;;;5073240;28;20297;-88
2022/05/29 13:32:14;;;;;;;;;;;;;;;;;;5073368;28;19962;-88
2022/05/29 13:34:43;;;;;;;;;;;;;;;;;;5073107;28;19966;-86
2022/05/29 13:37:27;;;;;;;;;;;;;;;;;;5073388;28;19916;-86
2022/05/29 13:39:54;;;;;;;;;;;;;;;;;;5073250;28;19990;-90
2022/05/29 13:42:19;;;;;;;;;;;;;;;;;;5073292;28;19970;-86
2022/05/29 13:44:45;;;;;;;;;;;;;;;;;;5073065;28;19920;-86
2022/05/29 13:47:24;;;;;;;;;;;;;;;;;;5073214;28;19974;-89
2022/05/29 13:49:57;;;;;;;;;;;;;;;;;;5071996;28;20269;-89
2022/05/29 13:52:31;;;;;;;;;;;;;;;;;;5071733;28;19966;-89
2022/05/29 13:55:16;;;;;;;;;;;;;;;;;;5072628;28;19920;-88
2022/05/29 14:04:02;;;;;;;;;;;;;;;;;;5072744;28;19978;-89
2022/05/29 14:06:33;;;;;;;;;;;;;;;;;;5073078;28;19917;-87
2022/05/29 14:09:06;;;;;;;;;;;;;;;;;;5088339;28;19924;-89
2022/05/29 14:11:58;;;;;;;;;;;;;;;;;;5072795;28;19917;-90
2022/05/29 14:14:30;;;;;;;;;;;;;;;;;;5052440;28;20329;-90
2022/05/29 14:17:02;;;;;;;;;;;;;;;;;;5072937;28;19917;-90
2022/05/29 14:19:30;;;;;;;;;;;;;;;;;;5072805;28;20284;-89
2022/05/29 14:22:11;;;;;;;;;;;;;;;;;;5072855;28;19921;-86
2022/05/29 14:24:42;;;;;;;;;;;;;;;;;;5072709;28;20011;-88
2022/05/29 14:27:08;;;;;;;;;;;;;;;;;;5072882;28;19924;-86
2022/05/29 14:29:52;;;;;;;;;;;;;;;;;;5054542;28;20253;-88
2022/05/29 14:32:36;;;;;;;;;;;;;;;;;;5072797;28;19920;-87
2022/05/29 14:35:01;;;;;;;;;;;;;;;;;;5072302;28;19927;-87
2022/05/29 14:37:44;;;;;;;;;;;;;;;;;;5072677;28;19920;-89
2022/05/29 14:40:28;;;;;;;;;;;;;;;;;;5072720;28;20361;-91
2022/05/29 14:42:54;;;;;;;;;;;;;;;;;;5072658;28;19990;-88
2022/05/29 14:45:26;;;;;;;;;;;;;;;;;;5072429;28;19947;-86
2022/05/29 14:48:14;;;;;;;;;;;;;;;;;;5072464;28;19916;-86
2022/05/29 14:51:01;;;;;;;;;;;;;;;;;;5072507;28;19985;-86
2022/05/29 14:53:29;;;;;;;;;;;;;;;;;;5072717;28;19921;-88
2022/05/29 14:55:58;;;;;;;;;;;;;;;;;;5054028;28;19974;-86
2022/05/29 14:58:34;;;;;;;;;;;;;;;;;;5072491;28;19930;-89
2022/05/29 15:01:07;;;;;;;;;;;;;;;;;;5072565;28;19975;-86
2022/05/29 15:03:41;;;;;;;;;;;;;;;;;;5072097;28;20369;-86
2022/05/29 15:06:10;;;;;;;;;;;;;;;;;;5072441;28;20074;-87
2022/05/29 15:11:24;;;;;;;;;;;;;;;;;;5072456;28;19923;-87
2022/05/29 15:14:01;;;;;;;;;;;;;;;;;;5054021;28;19925;-86
2022/05/29 15:16:27;;;;;;;;;;;;;;;;;;5054117;28;19916;-86
2022/05/29 15:18:53;;;;;;;;;;;;;;;;;;5072301;28;20042;-88
2022/05/29 15:24:12;;;;;;;;;;;;;;;;;;5072443;28;19924;-85
2022/05/29 15:26:54;;;;;;;;;;;;;;;;;;5072333;28;19917;-86
2022/05/29 15:29:31;;;;;;;;;;;;;;;;;;5075124;28;20363;-87
2022/05/29 15:32:01;;;;;;;;;;;;;;;;;;5057766;28;19921;-85
2022/05/29 15:34:39;;;;;;;;;;;;;;;;;;5075740;28;20011;-86
2022/05/29 15:37:11;;;;;;;;;;;;;;;;;;5075720;28;19916;-86
2022/05/29 15:39:39;;;;;;;;;;;;;;;;;;5075546;28;19920;-86
2022/05/29 15:42:13;;;;;;;;;;;;;;;;;;5075568;28;20003;-87
2022/05/29 15:45:05;;;;;;;;;;;;;;;;;;5075334;28;19916;-85
2022/05/29 15:47:49;;;;;;;;;;;;;;;;;;5051719;28;20399;-85
2022/05/29 15:50:33;;;;;;;;;;;;;;;;;;5057334;28;19966;-87
2022/05/29 15:53:31;;;;;;;;;;;;;;;;;;5075325;28;20296;-86
2022/05/29 15:56:01;;;;;;;;;;;;;;;;;;5040755;28;20381;-88
2022/05/29 15:58:33;;;;;;;;;;;;;;;;;;5075330;28;19974;-86
2022/05/29 16:01:09;;;;;;;;;;;;;;;;;;5057319;28;19921;-86
2022/05/29 16:03:35;;;;;;;;;;;;;;;;;;5056937;28;19916;-88
2022/05/29 16:06:07;;;;;;;;;;;;;;;;;;5075089;28;19974;-86
2022/05/29 16:08:35;;;;;;;;;;;;;;;;;;5075130;28;19938;-86
2022/05/29 16:11:02;;;;;;;;;;;;;;;;;;5075025;28;19920;-89
2022/05/29 16:13:37;;;;;;;;;;;;;;;;;;5074794;28;19993;-88
2022/05/29 16:16:10;;;;;;;;;;;;;;;;;;5074634;28;19962;-86
2022/05/29 16:18:50;;;;;;;;;;;;;;;;;;5074932;28;19916;-89
2022/05/29 16:21:28;;;;;;;;;;;;;;;;;;5074937;28;19923;-86
2022/05/29 16:24:01;;;;;;;;;;;;;;;;;;5074498;28;19935;-86
2022/05/29 16:26:36;;;;;;;;;;;;;;;;;;5074669;28;20502;-90
2022/05/29 16:29:28;;;;;;;;;;;;;;;;;;5074672;28;19917;-87
2022/05/29 16:31:53;;;;;;;;;;;;;;;;;;5054463;28;20311;-86
2022/05/29 16:34:23;;;;;;;;;;;;;;;;;;5074458;28;19942;-87
2022/05/29 16:48:16;;;;;;;;;;;;;;;;;;5074393;28;19943;-88
2022/05/29 16:50:51;;;;;;;;;;;;;;;;;;5074256;28;19920;-86
2022/05/29 16:53:18;;;;;;;;;;;;;;;;;;5074130;28;19943;-86
2022/05/29 16:55:49;;;;;;;;;;;;;;;;;;5073482;28;19951;-86
2022/05/29 16:58:20;;;;;;;;;;;;;;;;;;5056268;28;20319;-86
2022/05/29 17:00:58;;;;;;;;;;;;;;;;;;5074177;28;19927;-87
2022/05/29 17:03:36;;;;;;;;;;;;;;;;;;5074551;28;19924;-87
2022/05/29 17:06:04;;;;;;;;;;;;;;;;;;5073809;28;20372;-89
2022/05/29 17:08:33;;;;;;;;;;;;;;;;;;5074002;28;19916;-86
2022/05/29 17:11:00;;;;;;;;;;;;;;;;;;5073797;28;19917;-87
2022/05/29 17:13:26;;;;;;;;;;;;;;;;;;5073804;28;19963;-86
2022/05/29 17:15:54;;;;;;;;;;;;;;;;;;5073442;28;19921;-88
2022/05/29 17:18:19;;;;;;;;;;;;;;;;;;5073816;28;19917;-86
2022/05/29 17:21:01;;;;;;;;;;;;;;;;;;5073727;28;20296;-88
2022/05/29 17:23:36;;;;;;;;;;;;;;;;;;5073683;28;19917;-87
2022/05/29 17:26:01;;;;;;;;;;;;;;;;;;5055370;28;20338;-86
2022/05/29 17:28:42;;;;;;;;;;;;;;;;;;5073632;28;19916;-87
2022/05/29 17:31:24;;;;;;;;;;;;;;;;;;5055612;28;19964;-91
2022/05/29 17:33:58;;;;;;;;;;;;;;;;;;5073163;28;19916;-87
2022/05/29 17:36:25;;;;;;;;;;;;;;;;;;5056448;28;19960;-87
2022/05/29 17:38:55;;;;;;;;;;;;;;;;;;5073395;28;20384;-88
2022/05/29 17:41:21;;;;;;;;;;;;;;;;;;5073342;28;19928;-87
2022/05/29 17:43:47;;;;;;;;;;;;;;;;;;5073131;28;19935;-90
2022/05/29 17:46:12;;;;;;;;;;;;;;;;;;5072968;28;19925;-88
2022/05/29 17:48:45;;;;;;;;;;;;;;;;;;5073297;28;19924;-88
2022/05/29 17:51:19;;;;;;;;;;;;;;;;;;5072902;28;20398;-87
2022/05/29 17:53:50;;;;;;;;;;;;;;;;;;5072937;28;19954;-86
2022/05/29 17:56:16;;;;;;;;;;;;;;;;;;5072820;28;19931;-87
2022/05/29 17:58:42;;;;;;;;;;;;;;;;;;5073103;28;19920;-88
2022/05/29 18:01:08;;;;;;;;;;;;;;;;;;5055245;28;19931;-88